createdAt,value
2018-10-18T00:01:50.854Z,14.70
2018-10-18T00:04:19.732Z,14.70
2018-10-18T00:06:48.204Z,14.70
2018-10-18T00:09:26.617Z,14.70
2018-10-18T00:11:55.231Z,14.70
2018-10-18T00:14:23.665Z,14.80
2018-10-18T00:16:52.217Z,14.80
2018-10-18T00:19:20.818Z,14.80
2018-10-18T00:21:49.317Z,14.70
2018-10-18T00:24:18.078Z,14.80
2018-10-18T00:26:46.938Z,14.80
2018-10-18T00:29:15.810Z,14.80
2018-10-18T00:31:44.516Z,14.80
2018-10-18T00:34:13.207Z,14.80
2018-10-18T00:36:41.861Z,14.80
2018-10-18T00:39:12.777Z,14.80
2018-10-18T00:41:41.926Z,14.80
2018-10-18T00:44:10.455Z,14.80
2018-10-18T00:46:39.093Z,14.80
2018-10-18T00:49:07.961Z,14.80
2018-10-18T00:51:36.841Z,14.80
2018-10-18T00:54:05.967Z,14.80
2018-10-18T00:56:34.602Z,14.80
2018-10-18T00:59:03.541Z,14.80
2018-10-18T01:01:32.415Z,14.80
2018-10-18T01:04:01.317Z,14.80
2018-10-18T01:06:30.206Z,14.80
2018-10-18T01:08:58.910Z,14.80
2018-10-18T01:11:27.599Z,14.80
2018-10-18T01:13:57.105Z,14.70
2018-10-18T01:16:26.449Z,14.70
2018-10-18T01:18:55.230Z,14.70
2018-10-18T01:21:23.643Z,14.70
2018-10-18T01:23:52.290Z,14.70
2018-10-18T01:26:21.096Z,14.70
2018-10-18T01:28:49.984Z,14.70
2018-10-18T01:31:18.903Z,14.70
2018-10-18T01:33:47.762Z,14.70
2018-10-18T01:36:16.517Z,14.70
2018-10-18T01:38:45.177Z,14.70
2018-10-18T01:41:13.811Z,14.70
2018-10-18T01:43:43.443Z,14.70
2018-10-18T01:46:12.248Z,14.70
2018-10-18T01:48:40.963Z,14.70
2018-10-18T01:51:09.790Z,14.60
2018-10-18T01:53:38.291Z,14.70
2018-10-18T01:56:07.317Z,14.70
2018-10-18T01:58:35.839Z,14.70
2018-10-18T02:01:04.984Z,14.70
2018-10-18T02:03:33.843Z,14.70
2018-10-18T02:06:02.811Z,14.70
2018-10-18T02:08:31.641Z,14.70
2018-10-18T02:11:00.313Z,14.70
2018-10-18T02:13:28.975Z,14.70
2018-10-18T02:15:57.715Z,14.70
2018-10-18T02:18:26.567Z,14.70
2018-10-18T02:20:55.277Z,14.70
2018-10-18T02:23:24.140Z,14.70
2018-10-18T02:25:52.807Z,14.70
2018-10-18T02:28:21.309Z,14.70
2018-10-18T02:30:50.202Z,14.70
2018-10-18T02:33:19.083Z,14.70
2018-10-18T02:35:47.748Z,14.70
2018-10-18T02:38:16.247Z,14.70
2018-10-18T02:40:45.152Z,14.70
2018-10-18T02:43:13.831Z,14.70
2018-10-18T02:45:42.312Z,14.70
2018-10-18T02:48:10.834Z,14.70
2018-10-18T02:50:39.464Z,14.70
2018-10-18T02:53:08.194Z,14.70
2018-10-18T02:55:37.037Z,14.70
2018-10-18T02:58:05.748Z,14.70
2018-10-18T03:00:34.435Z,14.70
2018-10-18T03:03:03.125Z,14.70
2018-10-18T03:05:31.778Z,14.70
2018-10-18T03:08:00.672Z,14.70
2018-10-18T03:10:29.385Z,14.70
2018-10-18T03:12:58.265Z,14.70
2018-10-18T03:15:27.156Z,14.70
2018-10-18T03:17:55.649Z,14.70
2018-10-18T03:20:24.524Z,14.70
2018-10-18T03:22:53.239Z,14.70
2018-10-18T03:25:21.786Z,14.70
2018-10-18T03:27:49.845Z,14.70
2018-10-18T03:30:17.979Z,14.70
2018-10-18T03:32:45.903Z,14.70
2018-10-18T03:35:13.918Z,14.70
2018-10-18T03:37:41.943Z,14.70
2018-10-18T03:40:10.954Z,14.70
2018-10-18T03:42:39.801Z,14.70
2018-10-18T03:45:08.504Z,14.70
2018-10-18T03:47:37.167Z,14.70
2018-10-18T03:50:06.107Z,14.70
2018-10-18T03:52:34.780Z,14.70
2018-10-18T03:55:04.299Z,14.70
2018-10-18T03:57:32.976Z,14.70
2018-10-18T04:00:01.944Z,14.70
2018-10-18T04:02:30.723Z,14.70
2018-10-18T04:04:59.614Z,14.70
2018-10-18T04:07:28.129Z,14.70
2018-10-18T04:09:56.791Z,14.60
2018-10-18T04:12:25.743Z,14.60
2018-10-18T04:14:54.599Z,14.60
2018-10-18T04:17:23.434Z,14.60
2018-10-18T04:19:52.018Z,14.60
2018-10-18T04:22:20.876Z,14.60
2018-10-18T04:24:49.746Z,14.60
2018-10-18T04:27:18.413Z,14.60
2018-10-18T04:29:47.110Z,14.60
2018-10-18T04:32:15.771Z,14.60
2018-10-18T04:34:44.242Z,14.60
2018-10-18T04:37:12.964Z,14.60
2018-10-18T04:39:41.827Z,14.60
2018-10-18T04:42:10.799Z,14.60
2018-10-18T04:44:39.643Z,14.60
2018-10-18T04:47:08.598Z,14.60
2018-10-18T04:49:36.965Z,14.60
2018-10-18T04:52:05.872Z,14.60
2018-10-18T04:54:34.562Z,14.50
2018-10-18T04:57:03.318Z,14.60
2018-10-18T04:59:32.168Z,14.60
2018-10-18T05:02:16.152Z,14.60
2018-10-18T05:07:17.124Z,14.60
2018-10-18T05:09:46.329Z,14.50
2018-10-18T05:12:15.207Z,14.50
2018-10-18T05:14:44.109Z,14.50
2018-10-18T05:17:12.979Z,14.50
2018-10-18T05:19:41.446Z,14.50
2018-10-18T05:22:09.961Z,14.50
2018-10-18T05:24:38.840Z,14.50
2018-10-18T05:27:07.499Z,14.40
2018-10-18T05:29:36.235Z,14.40
2018-10-18T05:32:05.139Z,14.40
2018-10-18T05:34:34.208Z,14.40
2018-10-18T05:37:03.915Z,14.40
2018-10-18T05:39:45.286Z,14.40
2018-10-18T05:42:17.350Z,14.40
2018-10-18T05:44:47.757Z,14.40
2018-10-18T05:47:24.226Z,14.30
2018-10-18T05:50:00.741Z,14.40
2018-10-18T05:52:36.404Z,14.40
2018-10-18T05:55:06.228Z,14.30
2018-10-18T05:57:37.902Z,14.30
2018-10-18T06:00:09.915Z,14.30
2018-10-18T06:02:38.687Z,14.20
2018-10-18T06:05:07.508Z,14.20
2018-10-18T06:07:38.944Z,14.20
2018-10-18T06:10:18.274Z,14.20
2018-10-18T06:12:47.237Z,14.20
2018-10-18T06:15:17.176Z,14.10
2018-10-18T06:20:52.425Z,14.10
2018-10-18T06:23:21.096Z,14.00
2018-10-18T06:25:49.705Z,14.00
2018-10-18T06:28:18.599Z,14.00
2018-10-18T06:30:47.283Z,13.90
2018-10-18T06:33:15.746Z,13.90
2018-10-18T06:35:44.234Z,13.90
2018-10-18T06:38:12.928Z,13.90
2018-10-18T06:40:41.799Z,13.90
2018-10-18T06:43:10.365Z,13.90
2018-10-18T06:45:38.991Z,13.80
2018-10-18T06:48:07.672Z,13.80
2018-10-18T06:50:36.548Z,13.80
2018-10-18T06:53:05.525Z,13.80
2018-10-18T06:55:34.096Z,13.80
2018-10-18T06:58:03.258Z,13.80
2018-10-18T07:00:32.055Z,13.80
2018-10-18T07:03:00.604Z,13.80
2018-10-18T07:05:29.494Z,13.80
2018-10-18T07:07:58.404Z,13.80
2018-10-18T07:10:27.234Z,13.80
2018-10-18T07:12:55.727Z,13.80
2018-10-18T07:15:24.663Z,13.80
2018-10-18T07:17:54.137Z,13.80
2018-10-18T07:20:23.061Z,13.80
2018-10-18T07:22:51.702Z,13.80
2018-10-18T07:25:20.438Z,13.80
2018-10-18T07:27:49.278Z,13.90
2018-10-18T07:30:18.246Z,13.90
2018-10-18T07:32:47.073Z,13.90
2018-10-18T07:35:16.336Z,14.00
2018-10-18T07:37:45.097Z,13.90
2018-10-18T07:40:15.520Z,13.90
2018-10-18T07:42:44.239Z,14.00
2018-10-18T07:45:13.534Z,14.00
2018-10-18T07:47:42.871Z,14.10
2018-10-18T07:50:12.132Z,14.10
2018-10-18T07:52:40.691Z,14.10
2018-10-18T07:55:10.186Z,14.20
2018-10-18T07:57:39.029Z,14.20
2018-10-18T08:00:10.898Z,14.40
2018-10-18T08:02:40.019Z,14.40
2018-10-18T08:05:09.359Z,14.50
2018-10-18T08:07:38.172Z,14.60
2018-10-18T08:10:14.031Z,14.60
2018-10-18T08:12:42.861Z,14.70
2018-10-18T08:15:12.911Z,14.80
2018-10-18T08:17:42.282Z,14.80
2018-10-18T08:20:11.717Z,14.90
2018-10-18T08:22:40.827Z,15.00
2018-10-18T08:25:09.690Z,15.10
2018-10-18T08:27:38.419Z,15.10
2018-10-18T08:30:09.139Z,15.20
2018-10-18T08:32:38.055Z,15.40
2018-10-18T08:35:07.619Z,15.50
2018-10-18T08:37:36.580Z,15.60
2018-10-18T08:40:05.759Z,15.80
2018-10-18T08:42:34.653Z,16.00
2018-10-18T08:45:03.799Z,16.10
2018-10-18T08:47:32.604Z,16.30
2018-10-18T08:50:01.659Z,16.50
2018-10-18T08:52:30.427Z,16.60
2018-10-18T08:54:59.302Z,16.80
2018-10-18T08:57:28.160Z,17.00
2018-10-18T08:59:56.666Z,17.20
2018-10-18T09:02:25.514Z,17.40
2018-10-18T09:04:54.197Z,17.60
2018-10-18T09:07:22.220Z,17.80
2018-10-18T09:09:50.266Z,18.10
2018-10-18T09:12:23.170Z,18.20
2018-10-18T09:14:51.237Z,18.50
2018-10-18T09:17:19.265Z,18.80
2018-10-18T09:19:47.335Z,19.00
2018-10-18T09:22:15.326Z,19.30
2018-10-18T09:24:43.348Z,19.50
2018-10-18T09:27:11.474Z,19.70
2018-10-18T09:29:39.468Z,20.00
2018-10-18T09:32:07.487Z,20.40
2018-10-18T09:34:35.502Z,20.60
2018-10-18T09:37:08.718Z,20.90
2018-10-18T09:39:37.481Z,21.00
2018-10-18T09:42:05.914Z,21.30
2018-10-18T09:44:33.964Z,21.60
2018-10-18T09:47:02.067Z,21.80
2018-10-18T09:49:30.081Z,22.10
2018-10-18T09:51:58.108Z,22.40
2018-10-18T09:54:26.149Z,22.70
2018-10-18T09:56:54.134Z,22.80
2018-10-18T09:59:22.209Z,22.90
2018-10-18T10:01:55.759Z,23.30
2018-10-18T10:04:23.853Z,23.50
2018-10-18T10:06:51.880Z,23.70
2018-10-18T10:09:19.930Z,23.80
2018-10-18T10:11:47.962Z,23.90
2018-10-18T10:14:16.842Z,24.10
2018-10-18T10:16:44.891Z,24.30
2018-10-18T10:19:13.091Z,24.50
2018-10-18T10:21:40.943Z,24.70
2018-10-18T10:24:08.996Z,24.60
2018-10-18T10:26:37.009Z,24.80
2018-10-18T10:29:05.050Z,25.00
2018-10-18T10:31:33.161Z,25.10
2018-10-18T10:34:01.160Z,25.00
2018-10-18T10:36:29.170Z,25.10
2018-10-18T10:38:57.255Z,25.10
2018-10-18T10:41:25.275Z,25.30
2018-10-18T10:43:53.324Z,25.30
2018-10-18T10:46:21.401Z,25.40
2018-10-18T10:48:49.365Z,25.50
2018-10-18T10:51:17.476Z,25.50
2018-10-18T10:53:45.440Z,25.50
2018-10-18T10:56:13.501Z,25.30
2018-10-18T10:58:41.506Z,25.10
2018-10-18T11:01:27.297Z,25.10
2018-10-18T11:03:56.591Z,24.90
2018-10-18T11:06:24.922Z,24.90
2018-10-18T11:08:52.982Z,24.90
2018-10-18T11:11:21.686Z,24.80
2018-10-18T11:13:50.057Z,25.00
2018-10-18T11:16:23.708Z,25.10
2018-10-18T11:18:51.749Z,25.10
2018-10-18T11:21:19.881Z,25.10
2018-10-18T11:23:47.847Z,25.00
2018-10-18T11:26:15.956Z,24.90
2018-10-18T11:28:43.937Z,24.70
2018-10-18T11:31:12.023Z,24.80
2018-10-18T11:33:40.092Z,24.80
2018-10-18T11:36:08.251Z,24.70
2018-10-18T11:38:36.236Z,24.60
2018-10-18T11:41:04.281Z,24.60
2018-10-18T11:43:32.337Z,24.60
2018-10-18T11:48:53.299Z,24.30
2018-10-18T11:51:21.290Z,24.10
2018-10-18T11:53:49.400Z,24.00
2018-10-18T11:56:17.496Z,23.90
2018-10-18T11:58:46.159Z,23.80
2018-10-18T12:01:15.041Z,23.70
2018-10-18T12:03:43.051Z,23.60
2018-10-18T12:06:11.163Z,23.60
2018-10-18T12:08:39.214Z,23.60
2018-10-18T12:11:07.300Z,23.50
2018-10-18T12:13:35.237Z,23.40
2018-10-18T12:16:03.264Z,23.40
2018-10-18T12:18:31.481Z,23.30
2018-10-18T12:20:59.502Z,23.20
2018-10-18T12:23:27.527Z,23.10
2018-10-18T12:25:56.424Z,23.10
2018-10-18T12:28:24.755Z,23.10
2018-10-18T12:30:52.784Z,22.90
2018-10-18T12:33:21.418Z,22.80
2018-10-18T12:35:50.062Z,22.80
2018-10-18T12:38:18.846Z,22.80
2018-10-18T12:40:47.731Z,22.80
2018-10-18T12:43:16.542Z,22.70
2018-10-18T12:45:44.596Z,22.60
2018-10-18T12:48:12.792Z,22.30
2018-10-18T12:50:40.799Z,22.20
2018-10-18T12:53:08.878Z,22.10
2018-10-18T12:55:36.923Z,22.00
2018-10-18T12:58:05.274Z,21.90
2018-10-18T13:00:33.876Z,21.90
2018-10-18T13:03:03.436Z,21.90
2018-10-18T13:05:32.021Z,21.70
2018-10-18T13:08:00.565Z,21.70
2018-10-18T13:10:29.474Z,21.60
2018-10-18T13:12:58.321Z,21.60
2018-10-18T13:15:27.265Z,21.50
2018-10-18T13:17:55.948Z,21.40
2018-10-18T13:20:26.955Z,21.30
2018-10-18T13:22:56.476Z,21.30
2018-10-18T13:25:26.120Z,21.30
2018-10-18T13:27:55.685Z,21.20
2018-10-18T13:30:23.742Z,21.10
2018-10-18T13:32:52.512Z,21.10
2018-10-18T13:35:20.689Z,21.00
2018-10-18T13:37:48.801Z,20.90
2018-10-18T13:40:16.840Z,20.90
2018-10-18T13:42:45.224Z,20.80
2018-10-18T13:45:14.888Z,20.90
2018-10-18T13:47:43.997Z,20.80
2018-10-18T13:50:12.427Z,20.70
2018-10-18T13:52:40.443Z,20.70
2018-10-18T13:55:08.516Z,20.70
2018-10-18T13:57:36.953Z,20.60
2018-10-18T14:00:14.869Z,20.50
2018-10-18T14:02:43.542Z,20.50
2018-10-18T14:05:12.037Z,20.50
2018-10-18T14:07:41.570Z,20.50
2018-10-18T14:10:10.287Z,20.40
2018-10-18T14:12:38.646Z,20.40
2018-10-18T14:15:08.956Z,20.30
2018-10-18T14:17:37.978Z,20.30
2018-10-18T14:20:09.363Z,20.20
2018-10-18T14:22:40.950Z,20.10
2018-10-18T14:25:11.611Z,20.00
2018-10-18T14:27:42.540Z,20.00
2018-10-18T14:30:14.601Z,19.90
2018-10-18T14:32:51.961Z,19.90
2018-10-18T14:35:24.456Z,19.90
2018-10-18T14:37:55.114Z,19.80
2018-10-18T14:40:26.114Z,19.70
2018-10-18T14:42:56.731Z,19.60
2018-10-18T14:45:30.854Z,19.60
2018-10-18T14:47:59.474Z,19.60
2018-10-18T14:50:32.285Z,19.50
2018-10-18T14:53:02.302Z,19.50
2018-10-18T14:55:35.971Z,19.50
2018-10-18T14:58:04.768Z,19.50
2018-10-18T15:00:35.878Z,19.50
2018-10-18T15:03:05.760Z,19.40
2018-10-18T15:05:35.762Z,19.40
2018-10-18T15:08:05.978Z,19.30
2018-10-18T15:10:38.982Z,19.30
2018-10-18T15:13:07.840Z,19.30
2018-10-18T15:15:39.982Z,19.30
2018-10-18T15:18:13.911Z,19.20
2018-10-18T15:20:43.579Z,19.10
2018-10-18T15:23:15.007Z,19.10
2018-10-18T15:25:44.705Z,19.10
2018-10-18T15:28:15.660Z,19.10
2018-10-18T15:30:46.545Z,19.00
2018-10-18T15:33:19.337Z,19.00
2018-10-18T15:35:49.835Z,19.00
2018-10-18T15:38:19.002Z,18.90
2018-10-18T15:40:51.598Z,18.90
2018-10-18T15:43:19.937Z,18.80
2018-10-18T15:45:52.565Z,18.80
2018-10-18T15:48:22.808Z,18.80
2018-10-18T15:50:51.220Z,18.70
2018-10-18T15:53:23.528Z,18.70
2018-10-18T15:55:55.273Z,18.70
2018-10-18T15:58:25.702Z,18.60
2018-10-18T16:00:56.918Z,18.60
2018-10-18T16:03:27.077Z,18.50
2018-10-18T16:06:01.713Z,18.50
2018-10-18T16:08:37.400Z,18.40
2018-10-18T16:11:07.710Z,18.40
2018-10-18T16:13:38.647Z,18.40
2018-10-18T16:16:11.789Z,18.30
2018-10-18T16:18:42.510Z,18.30
2018-10-18T16:21:15.196Z,18.20
2018-10-18T16:23:50.279Z,18.20
2018-10-18T16:26:22.196Z,18.10
2018-10-18T16:28:51.514Z,18.20
2018-10-18T16:31:24.679Z,18.10
2018-10-18T16:33:54.994Z,18.00
2018-10-18T16:36:30.015Z,18.00
2018-10-18T16:39:00.518Z,17.90
2018-10-18T16:41:31.576Z,17.90
2018-10-18T16:44:08.659Z,17.90
2018-10-18T16:46:42.713Z,17.80
2018-10-18T16:49:16.571Z,17.70
2018-10-18T16:51:47.868Z,17.70
2018-10-18T16:54:18.977Z,17.60
2018-10-18T16:56:48.594Z,17.60
2018-10-18T16:59:21.555Z,17.50
2018-10-18T17:01:54.272Z,17.50
2018-10-18T17:04:23.769Z,17.40
2018-10-18T17:06:59.067Z,17.30
2018-10-18T17:09:33.322Z,17.30
2018-10-18T17:12:07.123Z,17.30
2018-10-18T17:14:39.751Z,17.20
2018-10-18T17:17:26.153Z,17.20
2018-10-18T17:19:58.853Z,17.00
2018-10-18T17:22:34.819Z,17.00
2018-10-18T17:25:11.829Z,16.90
2018-10-18T17:27:50.881Z,16.90
2018-10-18T17:30:34.198Z,16.80
2018-10-18T17:33:26.742Z,16.80
2018-10-18T17:36:20.565Z,16.70
2018-10-18T17:39:07.325Z,16.70
2018-10-18T17:42:06.741Z,16.60
2018-10-18T17:44:59.685Z,16.60
2018-10-18T17:47:51.416Z,16.50
2018-10-18T17:50:35.766Z,16.50
2018-10-18T17:53:22.113Z,16.40
2018-10-18T17:56:08.641Z,16.40
2018-10-18T17:59:00.186Z,16.30
2018-10-18T18:01:53.304Z,16.20
2018-10-18T18:04:30.639Z,16.20
2018-10-18T18:07:02.577Z,16.10
2018-10-18T18:09:38.279Z,16.00
2018-10-18T18:12:12.519Z,16.00
2018-10-18T18:14:46.977Z,16.00
2018-10-18T18:17:23.472Z,15.90
2018-10-18T18:19:55.669Z,15.90
2018-10-18T18:22:26.722Z,15.80
2018-10-18T18:24:57.093Z,15.80
2018-10-18T18:27:27.702Z,15.70
2018-10-18T18:29:59.468Z,15.60
2018-10-18T18:32:32.305Z,15.60
2018-10-18T18:35:02.870Z,15.60
2018-10-18T18:37:40.558Z,15.50
2018-10-18T18:40:16.185Z,15.50
2018-10-18T18:42:47.692Z,15.40
2018-10-18T18:45:25.208Z,15.40
2018-10-18T18:47:58.451Z,15.40
2018-10-18T18:50:31.067Z,15.30
2018-10-18T18:53:00.543Z,15.30
2018-10-18T18:55:32.711Z,15.20
2018-10-18T19:04:55.326Z,15.20
2018-10-18T19:07:34.425Z,15.00
2018-10-18T19:10:07.869Z,15.00
2018-10-18T19:12:42.201Z,15.00
2018-10-18T19:15:19.428Z,15.00
2018-10-18T19:17:50.391Z,14.90
2018-10-18T19:20:26.055Z,14.90
2018-10-18T19:23:02.943Z,14.90
2018-10-18T19:25:41.929Z,14.80
2018-10-18T19:28:19.860Z,14.80
2018-10-18T19:30:52.996Z,14.70
2018-10-18T19:33:26.328Z,14.80
2018-10-18T19:35:59.462Z,14.80
2018-10-18T19:38:31.635Z,14.70
2018-10-18T19:41:04.811Z,14.70
2018-10-18T19:43:36.300Z,14.70
2018-10-18T19:46:12.395Z,14.70
2018-10-18T19:48:43.260Z,14.60
2018-10-18T19:51:13.165Z,14.60
2018-10-18T19:53:48.583Z,14.50
2018-10-18T19:56:20.215Z,14.40
2018-10-18T19:58:50.918Z,14.50
2018-10-18T20:01:22.319Z,14.40
2018-10-18T20:04:08.549Z,14.40
2018-10-18T20:06:42.283Z,14.40
2018-10-18T20:09:14.495Z,14.30
2018-10-18T20:11:47.005Z,14.30
2018-10-18T20:14:17.917Z,14.30
2018-10-18T20:16:48.868Z,14.20
2018-10-18T20:19:21.026Z,14.20
2018-10-18T20:21:56.613Z,14.20
2018-10-18T20:24:43.908Z,14.10
2018-10-18T20:27:35.771Z,14.10
2018-10-18T20:30:28.018Z,14.00
2018-10-18T20:33:13.759Z,14.00
2018-10-18T20:36:00.836Z,14.00
2018-10-18T20:38:51.302Z,13.90
2018-10-18T20:41:32.924Z,13.90
2018-10-18T20:44:20.281Z,13.90
2018-10-18T20:46:53.567Z,13.80
2018-10-18T20:49:27.392Z,13.80
2018-10-18T20:51:57.764Z,13.80
2018-10-18T20:54:29.899Z,13.70
2018-10-18T20:57:01.153Z,13.70
2018-10-18T20:59:31.642Z,13.70
2018-10-18T21:02:08.523Z,13.70
2018-10-18T21:04:41.241Z,13.70
2018-10-18T21:07:11.071Z,13.70
2018-10-18T21:09:44.671Z,13.60
2018-10-18T21:12:17.286Z,13.60
2018-10-18T21:14:47.809Z,13.60
2018-10-18T21:17:23.401Z,13.50
2018-10-18T21:19:52.146Z,13.50
2018-10-18T21:22:27.028Z,13.50
2018-10-18T21:24:58.143Z,13.50
2018-10-18T21:27:26.991Z,13.50
2018-10-18T21:29:56.692Z,13.40
2018-10-18T21:32:26.429Z,13.40
2018-10-18T21:34:55.309Z,13.40
2018-10-18T21:37:25.110Z,13.40
2018-10-18T21:39:53.867Z,13.40
2018-10-18T21:42:22.573Z,13.40
2018-10-18T21:44:52.690Z,13.30
2018-10-18T21:47:21.885Z,13.30
2018-10-18T21:49:50.673Z,13.30
2018-10-18T21:52:19.361Z,13.30
2018-10-18T21:54:48.039Z,13.20
2018-10-18T21:57:17.527Z,13.20
2018-10-18T21:59:46.259Z,13.20
2018-10-18T22:02:14.804Z,13.20
2018-10-18T22:04:43.667Z,13.10
2018-10-18T22:07:12.268Z,13.10
2018-10-18T22:09:41.018Z,13.10
2018-10-18T22:12:09.647Z,13.10
2018-10-18T22:14:38.305Z,13.10
2018-10-18T22:17:07.297Z,13.10
2018-10-18T22:19:36.099Z,13.10
2018-10-18T22:22:04.799Z,13.10
2018-10-18T22:24:33.942Z,13.10
2018-10-18T22:27:02.627Z,13.00
2018-10-18T22:29:31.396Z,13.00
2018-10-18T22:32:00.197Z,13.00
2018-10-18T22:34:28.867Z,13.00
2018-10-18T22:36:57.718Z,13.00
2018-10-18T22:39:26.472Z,12.90
2018-10-18T22:41:55.073Z,12.90
2018-10-18T22:44:23.770Z,12.90
2018-10-18T22:46:52.259Z,12.90
2018-10-18T22:49:20.903Z,12.90
2018-10-18T22:51:49.621Z,12.90
2018-10-18T22:54:18.359Z,12.90
2018-10-18T22:56:47.487Z,12.80
2018-10-18T22:59:16.380Z,12.80
2018-10-18T23:01:45.222Z,12.80
2018-10-18T23:04:14.069Z,12.80
2018-10-18T23:06:42.423Z,12.70
2018-10-18T23:09:12.246Z,12.70
2018-10-18T23:11:40.796Z,12.70
2018-10-18T23:14:10.142Z,12.70
2018-10-18T23:16:39.176Z,12.70
2018-10-18T23:19:09.144Z,12.60
2018-10-18T23:21:37.782Z,12.60
2018-10-18T23:24:06.911Z,12.60
2018-10-18T23:26:35.958Z,12.60
2018-10-18T23:29:04.763Z,12.60
2018-10-18T23:31:33.386Z,12.60
2018-10-18T23:34:02.035Z,12.50
2018-10-18T23:36:30.931Z,12.50
2018-10-18T23:39:00.026Z,12.50
2018-10-18T23:41:29.392Z,12.50
2018-10-18T23:43:58.591Z,12.50
2018-10-18T23:46:27.350Z,12.50
2018-10-18T23:48:55.988Z,12.50
2018-10-18T23:51:24.877Z,12.50
2018-10-18T23:53:53.807Z,12.50
2018-10-18T23:56:22.245Z,12.40
2018-10-18T23:58:50.945Z,12.40
